Time;durP1;ratioP1;P1;durP2;ratioP2;P2;SDS_P1;SDS_P2;PMS_P1;PMS_P2;Temp;Humidity;BMP_temperature;BMP_pressure;BME280_temperature;BME280_humidity;BME280_pressure;Samples;Min_cycle;Max_cycle;Signal;HPM_P1;HPM_P2
2022/08/22 00:00:12;;;;;;;19.98;3.55;;;;;;;21.35;66.90;99770.55;1641756;87;21293;-74
2022/08/22 00:02:50;;;;;;;15.25;3.62;;;;;;;21.30;67.19;99773.02;1641703;87;21767;-74
2022/08/22 00:05:53;;;;;;;16.12;3.20;;;;;;;21.25;67.39;99774.13;1620421;87;21597;-75
2022/08/22 00:08:39;;;;;;;;;;;;;;;21.20;67.51;99779.28;1644259;86;21028;-73
2022/08/22 00:11:48;;;;;;;14.40;3.37;;;;;;;21.13;67.78;99772.55;1641699;86;20169;-74
2022/08/22 00:14:44;;;;;;;15.00;3.40;;;;;;;21.04;68.01;99771.13;1641599;87;21055;-74
2022/08/22 00:17:33;;;;;;;17.65;3.70;;;;;;;20.97;68.29;99776.47;1641637;87;21071;-74
2022/08/22 00:20:25;;;;;;;20.92;3.47;;;;;;;20.96;68.51;99768.11;1641768;87;21020;-75
2022/08/22 00:23:14;;;;;;;14.23;3.05;;;;;;;20.90;68.67;99768.91;1641793;87;21974;-74
2022/08/22 00:25:55;;;;;;;17.98;3.72;;;;;;;20.85;68.89;99772.73;1626245;87;21039;-74
2022/08/22 00:28:41;;;;;;;9.98;3.08;;;;;;;20.81;69.04;99773.64;1641640;87;21031;-75
2022/08/22 00:31:32;;;;;;;14.25;3.50;;;;;;;20.77;69.10;99768.89;1641702;87;21361;-74
2022/08/22 00:34:06;;;;;;;14.87;3.12;;;;;;;20.74;69.18;99761.22;1641675;87;21047;-73
2022/08/22 00:36:53;;;;;;;15.72;3.33;;;;;;;20.73;69.21;99762.25;1641672;86;21607;-74
2022/08/22 00:39:34;;;;;;;14.38;3.52;;;;;;;20.72;69.25;99765.97;1641659;87;20995;-74
2022/08/22 00:42:21;;;;;;;11.85;3.17;;;;;;;20.68;69.27;99773.61;1641733;87;21039;-74
2022/08/22 00:45:15;;;;;;;12.50;3.62;;;;;;;20.66;69.24;99776.19;1641337;87;21774;-74
2022/08/22 00:48:05;;;;;;;;;;;;;;;20.63;69.32;99781.94;1644226;87;21523;-74
2022/08/22 00:50:59;;;;;;;13.25;3.62;;;;;;;20.61;69.37;99778.63;1641632;87;21862;-74
2022/08/22 00:54:03;;;;;;;10.63;3.33;;;;;;;20.54;69.33;99774.06;1641710;87;21035;-75
2022/08/22 00:57:09;;;;;;;13.72;3.08;;;;;;;20.50;69.35;99765.29;1641988;87;21311;-74
2022/08/22 01:00:10;;;;;;;14.40;3.35;;;;;;;20.45;69.05;99771.23;1641150;87;22028;-75
2022/08/22 01:03:07;;;;;;;11.20;2.95;;;;;;;20.44;68.55;99768.77;1641691;87;21054;-74
2022/08/22 01:06:16;;;;;;;17.05;3.20;;;;;;;20.44;68.55;99769.59;1640621;87;21832;-74
2022/08/22 01:09:25;;;;;;;12.05;3.30;;;;;;;20.42;68.52;99777.50;1641302;87;21478;-74
2022/08/22 01:12:44;;;;;;;10.70;3.37;;;;;;;20.39;68.48;99775.22;1641069;87;21727;-75
2022/08/22 01:15:15;;;;;;;10.32;2.90;;;;;;;20.34;68.45;99774.98;1641630;87;21036;-75
2022/08/22 01:18:03;;;;;;;9.13;2.85;;;;;;;20.28;68.57;99777.97;1641479;87;21074;-74
2022/08/22 01:20:56;;;;;;;12.63;3.35;;;;;;;20.25;68.55;99773.80;1641674;87;21974;-74
2022/08/22 01:23:45;;;;;;;13.93;3.00;;;;;;;20.17;68.67;99773.14;1641626;87;21297;-75
2022/08/22 01:27:02;;;;;;;12.73;3.02;;;;;;;20.13;68.69;99773.23;1640416;87;21067;-74
2022/08/22 01:29:56;;;;;;;12.10;3.25;;;;;;;20.12;68.52;99760.34;1641839;87;21038;-74
2022/08/22 01:33:01;;;;;;;12.45;3.22;;;;;;;20.06;68.31;99760.30;1641015;87;21352;-74
2022/08/22 01:35:49;;;;;;;13.53;2.70;;;;;;;20.01;68.14;99756.38;1641870;87;21737;-74
2022/08/22 01:38:53;;;;;;;13.20;2.50;;;;;;;19.99;67.98;99759.77;1644009;86;21023;-74
2022/08/22 01:41:57;;;;;;;8.10;2.90;;;;;;;19.99;67.68;99767.81;1656445;86;21091;-74
2022/08/22 01:44:39;;;;;;;9.20;2.95;;;;;;;19.97;67.55;99769.02;1656583;86;21071;-74
2022/08/22 01:47:16;;;;;;;13.03;3.12;;;;;;;19.91;67.68;99769.30;1605659;86;21328;-74
2022/08/22 01:49:52;;;;;;;9.60;2.72;;;;;;;19.86;67.77;99766.38;1656281;86;22265;-73
2022/08/22 01:52:44;;;;;;;9.20;3.10;;;;;;;19.83;67.58;99768.62;1655764;86;21087;-74
2022/08/22 01:55:15;;;;;;;14.70;3.50;;;;;;;19.80;67.63;99763.16;1610395;86;21083;-75
2022/08/22 01:57:56;;;;;;;19.25;3.10;;;;;;;19.77;67.74;99760.02;1632960;86;21010;-74
2022/08/22 02:00:26;;;;;;;14.18;3.30;;;;;;;19.73;67.67;99760.94;1656487;86;21067;-75
2022/08/22 02:03:14;;;;;;;10.28;2.90;;;;;;;19.73;67.53;99763.11;1648408;86;21846;-75
2022/08/22 02:05:55;;;;;;;17.30;3.35;;;;;;;19.73;67.36;99767.13;1656139;86;21057;-74
2022/08/22 02:08:55;;;;;;;13.43;2.60;;;;;;;19.71;67.05;99758.45;1656155;86;21030;-73
2022/08/22 02:11:45;;;;;;;13.00;2.95;;;;;;;19.71;66.43;99758.45;1656214;86;21053;-74
2022/08/22 02:14:33;;;;;;;10.58;3.00;;;;;;;19.42;66.31;99758.11;1656363;86;20963;-74
2022/08/22 02:17:16;;;;;;;9.75;2.87;;;;;;;19.35;66.27;99756.39;1652377;86;21872;-75
2022/08/22 02:20:12;;;;;;;13.83;2.52;;;;;;;19.34;66.00;99760.09;1656280;86;21806;-74
2022/08/22 02:23:01;;;;;;;15.78;2.67;;;;;;;19.35;65.65;99758.56;1652598;86;21484;-74
2022/08/22 02:25:32;;;;;;;10.30;2.40;;;;;;;19.34;65.40;99760.92;1656262;86;21041;-74
2022/08/22 02:28:29;;;;;;;10.28;2.50;;;;;;;19.34;65.33;99756.91;1656584;86;21073;-73
2022/08/22 02:31:07;;;;;;;10.75;2.65;;;;;;;19.36;65.28;99760.22;1656359;86;21908;-74
2022/08/22 02:33:45;;;;;;;15.15;2.90;;;;;;;19.37;65.29;99763.72;1585703;86;21261;-73
2022/08/22 02:36:27;;;;;;;16.48;2.42;;;;;;;19.33;64.95;99759.27;1656427;86;21030;-74
2022/08/22 02:39:19;;;;;;;14.50;2.90;;;;;;;19.32;65.09;99765.65;1656330;86;21039;-74
2022/08/22 02:42:14;;;;;;;10.80;2.77;;;;;;;19.32;65.28;99765.65;1656329;86;21053;-74
2022/08/22 02:44:58;;;;;;;15.25;2.77;;;;;;;19.30;65.11;99769.04;1656341;86;22619;-74
2022/08/22 02:47:33;;;;;;;11.83;2.37;;;;;;;19.28;64.70;99767.04;1656324;86;21054;-74
2022/08/22 02:50:29;;;;;;;16.97;3.27;;;;;;;19.28;64.63;99771.56;1656415;86;21085;-73
2022/08/22 02:53:13;;;;;;;11.33;2.52;;;;;;;19.30;64.40;99765.50;1656284;86;21038;-74
2022/08/22 02:56:03;;;;;;;12.73;2.52;;;;;;;19.32;64.11;99772.34;1655673;86;21066;-75
2022/08/22 02:58:54;;;;;;;23.67;2.87;;;;;;;19.33;63.84;99775.34;1656330;86;21901;-74
2022/08/22 03:01:28;;;;;;;16.80;3.20;;;;;;;19.33;63.69;99776.67;1656508;86;21018;-73
2022/08/22 03:04:33;;;;;;;15.98;2.72;;;;;;;19.35;63.44;99784.00;1656324;86;21078;-73
2022/08/22 03:07:24;;;;;;;15.60;2.65;;;;;;;19.36;63.34;99785.66;1656252;86;21260;-73
2022/08/22 03:10:02;;;;;;;15.70;2.58;;;;;;;19.36;63.32;99786.16;1656251;86;21038;-74
2022/08/22 03:12:40;;;;;;;18.20;2.95;;;;;;;19.34;63.08;99785.02;1651684;86;22235;-74
2022/08/22 03:15:46;;;;;;;19.75;2.83;;;;;;;19.36;62.83;99789.67;1646909;86;21038;-74
2022/08/22 03:18:27;;;;;;;21.00;2.72;;;;;;;19.37;62.52;99789.98;1656292;86;21517;-74
2022/08/22 03:21:14;;;;;;;16.73;2.58;;;;;;;19.36;62.71;99792.34;1656262;86;21038;-74
2022/08/22 03:23:49;;;;;;;10.93;3.30;;;;;;;19.35;62.92;99793.38;1656631;86;21057;-73
2022/08/22 03:26:27;;;;;;;23.95;3.35;;;;;;;19.35;62.77;99798.73;1637975;86;21867;-73
2022/08/22 03:28:58;;;;;;;12.58;2.50;;;;;;;19.35;62.64;99808.61;1655785;86;21090;-74
2022/08/22 03:31:25;;;;;;;14.18;2.67;;;;;;;19.34;62.59;99805.11;1636693;86;21061;-74
2022/08/22 03:34:23;;;;;;;14.68;3.37;;;;;;;19.34;62.57;99808.30;1656837;85;21086;-74
2022/08/22 03:37:22;;;;;;;17.73;2.70;;;;;;;19.32;62.52;99805.81;1656468;86;21576;-74
2022/08/22 03:39:59;;;;;;;21.35;3.05;;;;;;;19.33;62.44;99806.13;1636712;86;21950;-74
2022/08/22 03:42:54;;;;;;;17.40;2.80;;;;;;;19.36;62.45;99804.40;1656369;86;21054;-74
2022/08/22 03:45:54;;;;;;;16.37;2.92;;;;;;;19.38;62.84;99803.69;1656336;86;21219;-73
2022/08/22 03:48:42;;;;;;;17.35;2.60;;;;;;;19.38;62.93;99808.22;1656361;86;21046;-74
2022/08/22 03:51:39;;;;;;;17.05;3.22;;;;;;;19.36;63.29;99810.27;1656720;85;21078;-74
2022/08/22 03:54:41;;;;;;;17.07;2.98;;;;;;;19.36;63.29;99811.09;1656541;86;21827;-73
2022/08/22 03:57:50;;;;;;;18.65;2.92;;;;;;;19.36;63.28;99818.30;1640707;86;21038;-73
2022/08/22 04:00:59;;;;;;;16.35;2.70;;;;;;;19.40;63.11;99815.06;1648234;86;21094;-74
2022/08/22 04:04:17;;;;;;;19.25;2.67;;;;;;;19.43;63.17;99820.53;1656589;86;21070;-74
2022/08/22 04:07:23;;;;;;;22.17;3.30;;;;;;;19.48;63.18;99814.59;1656431;86;21035;-74
2022/08/22 04:10:32;;;;;;;15.50;2.92;;;;;;;19.56;63.20;99827.37;1656392;86;21849;-73
2022/08/22 04:13:10;;;;;;;15.15;2.72;;;;;;;19.63;63.22;99824.23;1656386;86;21042;-74
2022/08/22 04:16:17;;;;;;;15.90;3.02;;;;;;;19.70;63.31;99824.30;1656448;86;21301;-73
2022/08/22 04:19:39;;;;;;;20.27;3.40;;;;;;;19.76;63.30;99821.34;1656398;86;21692;-74
2022/08/22 04:22:33;;;;;;;14.90;2.83;;;;;;;19.81;63.37;99826.45;1656394;86;21061;-73
2022/08/22 04:25:22;;;;;;;18.12;3.20;;;;;;;19.86;63.32;99823.99;1656882;86;22016;-74
2022/08/22 04:28:18;;;;;;;16.87;2.75;;;;;;;19.90;63.46;99820.43;1656360;86;21043;-73
2022/08/22 04:31:05;;;;;;;17.50;2.62;;;;;;;19.95;63.29;99829.52;1656773;86;21078;-73
2022/08/22 04:33:55;;;;;;;17.00;3.00;;;;;;;20.00;63.36;99837.82;1656535;86;21339;-73
2022/08/22 04:36:33;;;;;;;13.28;2.85;;;;;;;20.08;63.17;99839.53;1656703;86;21090;-73
2022/08/22 04:39:05;;;;;;;16.87;3.00;;;;;;;20.18;63.16;99841.86;1656359;86;22797;-73
2022/08/22 04:41:49;;;;;;;14.95;2.77;;;;;;;20.27;63.01;99838.00;1606780;86;21298;-74
2022/08/22 04:44:26;;;;;;;19.40;2.92;;;;;;;20.36;62.99;99835.44;1656381;86;21047;-73
2022/08/22 04:47:04;;;;;;;17.12;3.33;;;;;;;20.48;62.60;99835.76;1656384;86;21038;-74
2022/08/22 04:49:47;;;;;;;15.18;3.10;;;;;;;20.57;61.91;99832.71;1656439;86;21733;-73
2022/08/22 04:52:22;;;;;;;28.17;3.33;;;;;;;20.69;61.39;99834.81;1656402;86;22505;-73
2022/08/22 04:55:27;;;;;;;22.07;3.33;;;;;;;20.82;60.36;99830.83;1631125;86;21824;-73
2022/08/22 04:58:20;;;;;;;23.18;3.22;;;;;;;20.93;59.65;99835.61;1630523;86;21050;-74
2022/08/22 05:01:01;;;;;;;19.92;4.12;;;;;;;21.04;58.79;99832.87;1656809;86;21304;-73
2022/08/22 05:03:28;;;;;;;35.10;3.85;;;;;;;21.14;58.91;99830.63;1655226;86;21644;-73
2022/08/22 05:05:57;;;;;;;22.80;3.42;;;;;;;21.21;58.46;99827.93;1656306;86;21837;-74
2022/08/22 05:08:26;;;;;;;30.37;3.47;;;;;;;21.26;58.05;99829.50;1656248;86;21087;-75
2022/08/22 05:10:57;;;;;;;20.30;3.65;;;;;;;21.31;57.79;99830.56;1656199;86;21095;-74
2022/08/22 05:13:35;;;;;;;32.33;3.90;;;;;;;21.37;57.58;99836.47;1655830;86;21721;-75
2022/08/22 05:16:08;;;;;;;25.17;3.77;;;;;;;21.42;57.53;99835.35;1648741;86;21077;-75
2022/08/22 05:18:42;;;;;;;20.95;3.37;;;;;;;21.49;57.29;99835.34;1648798;86;22604;-74
2022/08/22 05:21:10;;;;;;;28.75;3.80;;;;;;;21.60;57.47;99838.75;1655948;86;21570;-75
2022/08/22 05:23:53;;;;;;;25.27;3.40;;;;;;;21.67;57.28;99832.86;1637297;86;21074;-74
2022/08/22 05:26:21;;;;;;;29.27;4.17;;;;;;;21.74;57.04;99834.73;1656014;86;21043;-74
2022/08/22 05:28:52;;;;;;;31.65;4.55;;;;;;;21.81;56.67;99832.84;1656631;86;21816;-74
2022/08/22 05:31:26;;;;;;;23.52;4.60;;;;;;;21.89;56.58;99836.16;1656049;86;22370;-74
2022/08/22 05:34:03;;;;;;;29.32;4.58;;;;;;;21.97;55.80;99839.97;1656557;86;21050;-74
2022/08/22 05:36:47;;;;;;;22.45;4.03;;;;;;;22.08;55.65;99835.85;1655793;86;21038;-74
2022/08/22 05:39:17;;;;;;;;;;;;;;;22.18;55.66;99842.97;1652035;86;21100;-74
2022/08/22 05:41:44;;;;;;;27.70;4.45;;;;;;;22.30;55.46;99841.00;1654410;86;20165;-74
2022/08/22 05:44:18;;;;;;;24.65;4.33;;;;;;;22.37;54.62;99843.13;1656362;86;21905;-75
2022/08/22 05:47:02;;;;;;;31.45;4.58;;;;;;;22.68;53.49;99845.95;1656300;86;21073;-74
2022/08/22 05:49:37;;;;;;;40.55;5.95;;;;;;;22.80;52.66;99843.41;1656593;86;21541;-74
2022/08/22 05:52:50;;;;;;;39.73;5.17;;;;;;;22.90;52.82;99844.33;1656385;86;21050;-74
2022/08/22 05:55:37;;;;;;;29.75;6.00;;;;;;;23.01;52.87;99841.77;1656596;86;21315;-75
2022/08/22 05:58:27;;;;;;;25.68;4.40;;;;;;;23.17;52.39;99845.83;1655841;86;22220;-74
2022/08/22 06:01:02;;;;;;;37.53;4.95;;;;;;;23.24;52.53;99848.47;1656518;86;21039;-74
2022/08/22 06:03:36;;;;;;;31.00;4.53;;;;;;;23.33;52.49;99848.52;1656372;86;21089;-74
2022/08/22 06:06:10;;;;;;;38.13;4.90;;;;;;;23.41;51.68;99849.08;1655050;86;21128;-77
2022/08/22 06:08:41;;;;;;;30.17;4.22;;;;;;;23.45;51.45;99856.72;1656257;86;21049;-75
2022/08/22 06:11:18;;;;;;;27.98;4.85;;;;;;;23.45;51.07;99862.97;1656347;86;21736;-78
2022/08/22 06:14:09;;;;;;;36.05;8.08;;;;;;;23.46;51.45;99857.88;1656246;86;21058;-78
2022/08/22 06:16:42;;;;;;;31.93;5.62;;;;;;;23.51;51.30;99865.30;1656357;86;21476;-77
2022/08/22 06:19:08;;;;;;;42.58;19.95;;;;;;;23.56;51.41;99865.48;1656257;86;21062;-77
2022/08/22 06:21:36;;;;;;;35.30;9.38;;;;;;;23.60;51.28;99867.53;1656259;86;21046;-77
2022/08/22 06:24:05;;;;;;;34.90;6.40;;;;;;;23.65;51.36;99867.72;1656450;86;22869;-76
2022/08/22 06:26:37;;;;;;;31.10;5.12;;;;;;;23.76;51.71;99868.88;1656122;86;21537;-74
2022/08/22 06:29:06;;;;;;;29.77;5.00;;;;;;;23.87;51.88;99868.67;1654693;86;21034;-75
2022/08/22 06:31:43;;;;;;;35.58;5.08;;;;;;;23.95;50.59;99871.10;1656310;86;21054;-75
2022/08/22 06:34:13;;;;;;;40.63;5.55;;;;;;;23.95;50.41;99873.27;1656253;86;21070;-74
2022/08/22 06:36:44;;;;;;;35.00;5.30;;;;;;;23.95;50.61;99878.67;1637633;86;21917;-76
2022/08/22 06:39:32;;;;;;;36.77;5.40;;;;;;;24.01;50.06;99880.16;1656176;86;21062;-76
2022/08/22 06:42:07;;;;;;;36.00;5.42;;;;;;;24.05;49.68;99884.91;1644341;86;21047;-77
2022/08/22 06:44:43;;;;;;;36.50;5.53;;;;;;;24.07;49.19;99889.55;1641569;87;21287;-76
2022/08/22 06:47:31;;;;;;;37.33;5.50;;;;;;;24.07;48.80;99883.34;1641636;87;21058;-75
2022/08/22 06:50:12;;;;;;;45.20;5.62;;;;;;;24.03;48.55;99884.80;1641010;87;21892;-76
2022/08/22 06:52:59;;;;;;;41.10;4.92;;;;;;;24.05;48.81;99884.09;1641388;87;21043;-75
2022/08/22 06:55:30;;;;;;;49.60;5.62;;;;;;;24.08;48.50;99883.63;1641637;87;21094;-80
2022/08/22 06:58:04;;;;;;;45.50;5.87;;;;;;;24.14;49.01;99890.33;1641911;87;21043;-76
2022/08/22 07:00:33;;;;;;;49.90;5.58;;;;;;;24.19;48.21;99885.08;1641192;87;21055;-76
2022/08/22 07:03:09;;;;;;;46.65;5.65;;;;;;;24.22;48.21;99890.05;1641343;87;21935;-75
2022/08/22 07:05:38;;;;;;;41.35;5.60;;;;;;;24.27;48.40;99886.67;1641432;87;21466;-73
2022/08/22 07:08:13;;;;;;;41.88;5.90;;;;;;;24.32;48.14;99890.92;1641711;87;21713;-75
2022/08/22 07:10:42;;;;;;;38.67;5.67;;;;;;;24.36;48.27;99888.06;1641813;87;21676;-74
2022/08/22 07:13:14;;;;;;;45.52;6.35;;;;;;;24.44;47.48;99893.70;1641754;86;21059;-76
2022/08/22 07:15:41;;;;;;;40.05;5.78;;;;;;;24.43;47.90;99888.00;1621511;87;22471;-74
2022/08/22 07:18:17;;;;;;;42.78;6.92;;;;;;;24.44;47.72;99885.07;1641767;87;21071;-76
2022/08/22 07:20:48;;;;;;;45.98;8.43;;;;;;;24.54;47.73;99888.60;1620813;87;21931;-74
2022/08/22 07:23:44;;;;;;;40.17;6.72;;;;;;;24.62;47.28;99879.38;1641872;87;21119;-74
2022/08/22 07:30:18;;;;;;;45.40;10.72;;;;;;;24.73;47.29;99890.78;1631174;87;21062;-74
2022/08/22 07:33:03;;;;;;;46.53;6.65;;;;;;;24.77;47.18;99878.45;1628408;88;21045;-69
2022/08/22 07:35:37;;;;;;;47.88;6.20;;;;;;;24.80;47.26;99886.95;1624377;88;21065;-74
2022/08/22 07:38:24;;;;;;;51.02;5.60;;;;;;;24.84;47.02;99875.16;1628423;88;21105;-74
2022/08/22 07:41:02;;;;;;;50.48;6.22;;;;;;;24.86;46.68;99868.17;1628331;86;21104;-72
2022/08/22 07:43:34;;;;;;;53.63;6.83;;;;;;;24.95;47.13;99882.49;1625799;88;22618;-73
2022/08/22 07:46:40;;;;;;;51.28;7.22;;;;;;;25.02;47.12;99871.11;1626056;88;21076;-73
2022/08/22 07:49:22;;;;;;;50.28;7.35;;;;;;;25.10;46.40;99870.80;1627465;88;21804;-73
2022/08/22 07:51:59;;;;;;;53.02;7.12;;;;;;;25.20;46.81;99872.13;1628378;88;21065;-75
2022/08/22 07:54:40;;;;;;;54.42;7.25;;;;;;;25.29;46.67;99876.16;1628303;88;21745;-74
2022/08/22 07:57:14;;;;;;;63.20;8.00;;;;;;;25.32;46.02;99871.10;1628714;88;22421;-72
2022/08/22 07:59:51;;;;;;;57.85;7.33;;;;;;;25.31;45.87;99864.58;1628336;88;21049;-73
2022/08/22 08:02:18;;;;;;;76.75;22.27;;;;;;;25.34;45.72;99862.76;1628913;88;21053;-73
2022/08/22 08:04:44;;;;;;;54.45;7.80;;;;;;;25.31;45.77;99860.00;1624459;88;21113;-74
2022/08/22 08:07:13;;;;;;;37.28;6.53;;;;;;;25.38;45.61;99866.64;1628669;88;21296;-73
2022/08/22 08:09:45;;;;;;;73.35;8.75;;;;;;;25.49;45.23;99865.88;1628426;88;21867;-74
2022/08/22 08:12:11;;;;;;;54.48;6.28;;;;;;;25.52;44.81;99870.80;1628293;88;21049;-74
2022/08/22 08:14:40;;;;;;;52.45;6.95;;;;;;;25.58;44.39;99866.36;1607992;88;21166;-72
2022/08/22 08:17:23;;;;;;;57.45;7.47;;;;;;;25.54;44.60;99867.86;1628406;88;21054;-72
2022/08/22 08:19:50;;;;;;;64.20;7.28;;;;;;;25.54;45.27;99872.74;1629774;88;21124;-71
2022/08/22 08:22:20;;;;;;;44.42;6.40;;;;;;;25.60;45.38;99874.53;1628393;88;21938;-72
2022/08/22 08:24:46;;;;;;;49.20;6.87;;;;;;;25.65;45.65;99874.64;1628651;88;21306;-79
2022/08/22 08:30:21;;;;;;;48.42;6.97;;;;;;;25.70;44.82;99868.58;1628436;88;21069;-73
2022/08/22 08:32:53;;;;;;;52.33;7.42;;;;;;;25.78;44.99;99873.66;1628483;88;21073;-73
2022/08/22 08:35:26;;;;;;;49.30;7.25;;;;;;;25.92;45.24;99869.66;1628665;88;22823;-73
2022/08/22 08:38:00;;;;;;;55.78;7.97;;;;;;;26.10;44.29;99876.84;1628535;88;21543;-73
2022/08/22 08:40:35;;;;;;;62.50;7.85;;;;;;;26.22;43.86;99878.19;1628657;88;21140;-73
2022/08/22 08:43:33;;;;;;;54.90;7.28;;;;;;;26.28;42.65;99873.73;1631917;87;21109;-72
2022/08/22 08:46:48;;;;;;;46.45;6.92;;;;;;;26.30;42.57;99882.43;1633151;87;21073;-74
2022/08/22 08:49:39;;;;;;;57.80;7.55;;;;;;;26.19;42.52;99878.14;1633060;87;21844;-74
2022/08/22 08:52:23;;;;;;;60.17;7.47;;;;;;;26.12;42.78;99884.73;1633228;87;21141;-72
2022/08/22 08:55:17;;;;;;;61.00;7.33;;;;;;;26.06;42.80;99879.74;1648500;86;21063;-70
2022/08/22 08:58:15;;;;;;;51.42;6.92;;;;;;;26.07;43.19;99880.56;1638392;87;21097;-71
2022/08/22 09:00:47;;;;;;;60.45;7.53;;;;;;;26.06;42.63;99881.09;1637985;87;21085;-71
2022/08/22 09:04:11;;;;;;;53.40;7.00;;;;;;;26.07;43.69;99878.68;1638166;87;22720;-71
2022/08/22 09:07:02;;;;;;;54.15;6.90;;;;;;;26.21;43.67;99876.02;1637220;87;21058;-71
2022/08/22 09:09:46;;;;;;;53.78;7.53;;;;;;;26.42;43.28;99879.20;1637977;87;21317;-73
2022/08/22 09:12:32;;;;;;;67.17;8.55;;;;;;;26.50;43.76;99886.44;1637841;87;21097;-72
2022/08/22 09:15:16;;;;;;;62.75;21.52;;;;;;;26.65;42.95;99877.83;1638196;87;21090;-72
2022/08/22 09:18:01;;;;;;;73.37;21.52;;;;;;;26.74;42.11;99876.39;1637895;87;22873;-72
2022/08/22 09:20:41;;;;;;;72.87;9.45;;;;;;;26.76;41.86;99872.91;1637126;87;21038;-72
2022/08/22 09:23:34;;;;;;;56.23;9.63;;;;;;;26.91;42.23;99866.14;1637903;87;21050;-73
2022/08/22 09:26:18;;;;;;;63.50;8.60;;;;;;;27.11;43.14;99867.91;1638345;87;21074;-70
2022/08/22 09:28:55;;;;;;;56.88;7.08;;;;;;;27.33;42.58;99870.24;1637933;87;21536;-72
2022/08/22 09:31:35;;;;;;;64.27;7.58;;;;;;;27.53;41.03;99866.25;1637968;87;21772;-71
2022/08/22 09:34:28;;;;;;;71.87;9.25;;;;;;;27.54;40.74;99867.34;1637810;87;21098;-71
2022/08/22 09:37:27;;;;;;;65.87;8.33;;;;;;;27.61;40.95;99863.13;1638481;87;21281;-71
2022/08/22 09:40:04;;;;;;;63.40;7.87;;;;;;;27.67;41.47;99867.59;1609808;87;21461;-72
2022/08/22 09:42:48;;;;;;;70.37;8.48;;;;;;;27.81;39.75;99868.92;1637846;86;21102;-72
2022/08/22 09:45:37;;;;;;;80.60;8.98;;;;;;;27.89;40.24;99864.95;1637609;87;21793;-70
2022/08/22 09:48:38;;;;;;;61.92;8.28;;;;;;;28.04;40.36;99872.52;1637512;87;21034;-69
2022/08/22 09:51:37;;;;;;;76.30;8.78;;;;;;;28.19;38.92;99871.40;1636979;87;21312;-71
2022/08/22 09:54:35;;;;;;;67.30;9.00;;;;;;;28.26;38.66;99868.48;1636436;87;21054;-71
2022/08/22 09:57:07;;;;;;;75.32;8.93;;;;;;;28.42;38.09;99869.84;1632536;87;21592;-71
2022/08/22 09:59:51;;;;;;;56.35;7.97;;;;;;;28.56;38.66;99870.28;1637970;87;22456;-71
2022/08/22 10:02:44;;;;;;;73.62;8.25;;;;;;;28.75;38.87;99871.61;1637814;87;21517;-70
2022/08/22 10:05:46;;;;;;;66.30;8.95;;;;;;;28.97;38.77;99873.02;1638284;87;21107;-72
2022/08/22 10:08:38;;;;;;;65.60;10.25;;;;;;;29.14;38.46;99872.90;1637713;87;21055;-72
2022/08/22 10:11:28;;;;;;;70.52;8.90;;;;;;;29.31;38.09;99868.19;1638125;87;21046;-71
2022/08/22 10:14:15;;;;;;;73.10;10.05;;;;;;;29.48;37.94;99869.98;1637881;87;22510;-71
2022/08/22 10:17:15;;;;;;;87.65;13.20;;;;;;;29.68;37.03;99874.81;1638049;87;21034;-73
2022/08/22 10:19:53;;;;;;;89.45;10.18;;;;;;;29.74;37.11;99875.15;1637911;87;21109;-72
2022/08/22 10:22:31;;;;;;;77.50;10.90;;;;;;;29.79;37.12;99880.62;1591982;87;21760;-73
2022/08/22 10:25:15;;;;;;;71.10;9.83;;;;;;;29.83;36.80;99885.84;1637901;87;21284;-74
2022/08/22 10:27:55;;;;;;;78.15;10.88;;;;;;;29.89;36.30;99877.43;1637571;87;21827;-74
2022/08/22 10:30:43;;;;;;;75.40;9.58;;;;;;;29.95;35.91;99887.83;1637787;87;21046;-73
2022/08/22 10:33:35;;;;;;;61.45;8.85;;;;;;;29.83;35.85;99874.41;1638098;87;21054;-73
2022/08/22 10:36:06;;;;;;;77.12;9.45;;;;;;;29.74;35.28;99892.30;1637949;87;21264;-73
2022/08/22 10:38:50;;;;;;;73.02;9.65;;;;;;;29.61;36.16;99881.82;1617142;87;21065;-73
2022/08/22 10:41:57;;;;;;;71.25;9.05;;;;;;;29.56;37.15;99883.98;1637894;87;22261;-73
2022/08/22 10:44:46;;;;;;;72.50;9.28;;;;;;;29.74;36.89;99886.03;1637917;87;21094;-72
2022/08/22 10:47:16;;;;;;;67.27;8.80;;;;;;;30.01;36.76;99894.94;1637888;87;21484;-72
2022/08/22 10:50:06;;;;;;;68.47;9.50;;;;;;;30.16;35.33;99891.00;1637937;87;21042;-72
2022/08/22 10:52:41;;;;;;;84.42;10.08;;;;;;;30.15;35.23;99877.11;1637890;87;21058;-74
2022/08/22 10:55:22;;;;;;;72.47;9.65;;;;;;;30.23;36.14;99889.42;1637039;87;21831;-73
2022/08/22 10:58:05;;;;;;;69.77;10.05;;;;;;;30.48;35.68;99891.45;1637479;87;21145;-74
2022/08/22 11:00:47;;;;;;;68.07;11.40;;;;;;;30.56;35.58;99895.05;1637889;87;21054;-73
2022/08/22 11:03:32;;;;;;;45.00;10.53;;;;;;;30.64;36.05;99895.09;1637867;87;21494;-73
2022/08/22 11:06:00;;;;;;;65.25;9.90;;;;;;;30.78;35.18;99894.90;1637543;87;21109;-71
2022/08/22 11:08:42;;;;;;;65.60;9.73;;;;;;;30.87;35.58;99894.66;1636799;87;22620;-73
2022/08/22 11:11:14;;;;;;;66.00;8.43;;;;;;;30.91;35.42;99893.06;1636271;87;21086;-73
2022/08/22 11:14:08;;;;;;;68.60;9.38;;;;;;;30.95;34.98;99897.42;1636804;87;21823;-72
2022/08/22 11:17:01;;;;;;;67.22;8.63;;;;;;;30.74;34.30;99894.63;1615632;87;21574;-74
2022/08/22 11:19:39;;;;;;;78.50;9.05;;;;;;;30.48;36.07;99902.36;1635895;87;21089;-74
2022/08/22 11:22:26;;;;;;;76.67;9.08;;;;;;;30.47;36.00;99897.99;1636345;87;22312;-74
2022/08/22 11:25:20;;;;;;;65.17;9.08;;;;;;;30.66;36.43;99899.22;1611482;87;21134;-75
2022/08/22 11:28:32;;;;;;;63.05;8.68;;;;;;;30.78;35.21;99891.63;1609789;88;21857;-74
2022/08/22 11:31:26;;;;;;;66.00;9.73;;;;;;;30.80;35.48;99887.30;1610107;88;21094;-75
2022/08/22 11:34:10;;;;;;;80.95;10.03;;;;;;;30.93;35.53;99894.97;1611994;89;21045;-74
2022/08/22 11:36:57;;;;;;;82.62;9.30;;;;;;;31.12;35.38;99893.94;1611563;88;22819;-73
2022/08/22 11:39:47;;;;;;;75.03;9.53;;;;;;;31.17;35.01;99891.75;1611887;88;21318;-74
2022/08/22 11:42:20;;;;;;;61.15;8.80;;;;;;;31.31;35.48;99897.83;1611182;88;21032;-73
2022/08/22 11:45:01;;;;;;;64.85;9.08;;;;;;;31.33;34.82;99901.66;1611612;88;21415;-76
2022/08/22 11:47:31;;;;;;;77.65;8.98;;;;;;;31.11;35.09;99902.39;1592801;89;21038;-74
2022/08/22 11:50:28;;;;;;;58.00;8.25;;;;;;;30.94;35.84;99895.24;1611931;88;21946;-73
2022/08/22 11:53:15;;;;;;;73.37;9.05;;;;;;;31.03;35.77;99899.09;1611742;89;21238;-74
2022/08/22 11:56:14;;;;;;;79.67;10.32;;;;;;;31.32;35.48;99899.47;1611774;88;21742;-73
2022/08/22 11:58:55;;;;;;;88.95;10.98;;;;;;;31.54;34.99;99903.31;1611405;88;21516;-73
2022/08/22 12:01:45;;;;;;;73.07;10.32;;;;;;;31.74;34.23;99890.22;1611514;89;21327;-72
2022/08/22 12:04:35;;;;;;;60.43;9.18;;;;;;;31.90;34.32;99890.53;1611629;88;21795;-73
2022/08/22 12:07:21;;;;;;;82.55;10.20;;;;;;;32.02;33.17;99894.34;1611512;88;21207;-72
2022/08/22 12:10:16;;;;;;;70.83;10.03;;;;;;;31.95;33.87;99894.37;1611798;89;21046;-74
2022/08/22 12:13:19;;;;;;;84.85;10.45;;;;;;;32.07;32.90;99895.71;1611756;89;21057;-75
2022/08/22 12:15:57;;;;;;;76.70;10.40;;;;;;;32.00;32.96;99901.99;1611749;88;21778;-74
2022/08/22 12:18:29;;;;;;;60.65;9.65;;;;;;;31.96;33.06;99897.37;1611608;87;22768;-74
2022/08/22 12:21:41;;;;;;;77.17;9.88;;;;;;;31.79;32.55;99900.38;1612192;88;21061;-72
2022/08/22 12:24:45;;;;;;;81.70;9.60;;;;;;;31.56;33.30;99897.61;1611364;88;21058;-74
2022/08/22 12:27:24;;;;;;;75.17;9.63;;;;;;;31.35;33.36;99898.10;1611866;89;21522;-73
2022/08/22 12:30:18;;;;;;;76.33;9.33;;;;;;;31.28;34.24;99900.30;1611876;89;21116;-72
2022/08/22 12:33:09;;;;;;;76.87;9.50;;;;;;;31.39;34.39;99895.67;1612300;88;21829;-72
2022/08/22 12:35:59;;;;;;;82.17;10.03;;;;;;;31.54;34.50;99902.50;1611518;88;21788;-73
2022/08/22 12:38:54;;;;;;;75.50;9.38;;;;;;;31.60;33.66;99902.23;1611483;88;21810;-73
2022/08/22 12:41:47;;;;;;;76.92;10.25;;;;;;;31.53;34.09;99903.05;1611927;88;21548;-73
2022/08/22 12:44:25;;;;;;;63.42;8.95;;;;;;;31.53;34.44;99907.69;1629978;87;21053;-73
2022/08/22 12:47:03;;;;;;;63.95;8.63;;;;;;;31.56;33.34;99909.34;1632381;87;21841;-74
2022/08/22 12:49:46;;;;;;;74.42;9.05;;;;;;;31.28;33.93;99909.84;1600915;89;21059;-73
2022/08/22 12:52:48;;;;;;;91.87;11.33;;;;;;;31.37;34.24;99907.41;1606683;89;21059;-73